sensor_id;sensor_type;location;lat;lon;timestamp;pressure;altitude;pressure_sealevel;temperature;humidity
34893;BME280;21106;52.240;20.902;2023-07-16T00:00:33;99859.56;;;24.79;47.53
34893;BME280;21106;52.240;20.902;2023-07-16T00:07:01;99856.86;;;24.69;47.77
34893;BME280;21106;52.240;20.902;2023-07-16T00:12:07;99850.58;;;24.62;47.69
34893;BME280;21106;52.240;20.902;2023-07-16T00:17:35;99846.50;;;24.62;47.76
34893;BME280;21106;52.240;20.902;2023-07-16T00:24:33;99844.73;;;24.58;47.92
34893;BME280;21106;52.240;20.902;2023-07-16T00:31:07;99839.11;;;24.53;48.00
34893;BME280;21106;52.240;20.902;2023-07-16T00:36:13;99844.48;;;24.50;48.01
34893;BME280;21106;52.240;20.902;2023-07-16T00:41:19;99849.25;;;24.44;48.24
34893;BME280;21106;52.240;20.902;2023-07-16T00:46:25;99843.30;;;24.37;48.61
34893;BME280;21106;52.240;20.902;2023-07-16T00:51:52;99848.30;;;24.34;48.62
34893;BME280;21106;52.240;20.902;2023-07-16T00:58:04;99850.73;;;24.29;48.88
34893;BME280;21106;52.240;20.902;2023-07-16T01:04:59;99843.63;;;24.23;49.15
34893;BME280;21106;52.240;20.902;2023-07-16T01:11:27;99828.61;;;24.17;49.40
34893;BME280;21106;52.240;20.902;2023-07-16T01:16:55;99826.36;;;24.16;49.38
34893;BME280;21106;52.240;20.902;2023-07-16T01:30:51;99801.63;;;24.03;50.07
34893;BME280;21106;52.240;20.902;2023-07-16T01:37:32;99809.77;;;23.98;50.54
34893;BME280;21106;52.240;20.902;2023-07-16T01:44:04;99810.91;;;23.94;50.83
34893;BME280;21106;52.240;20.902;2023-07-16T01:49:10;99810.63;;;23.93;50.70
34893;BME280;21106;52.240;20.902;2023-07-16T01:54:40;99803.06;;;23.91;50.98
34893;BME280;21106;52.240;20.902;2023-07-16T02:01:42;99797.09;;;23.87;51.53
34893;BME280;21106;52.240;20.902;2023-07-16T02:08:14;99795.60;;;23.82;51.80
34893;BME280;21106;52.240;20.902;2023-07-16T02:13:44;99794.95;;;23.83;51.57
34893;BME280;21106;52.240;20.902;2023-07-16T02:20:12;99796.77;;;23.80;51.86
34893;BME280;21106;52.240;20.902;2023-07-16T02:25:46;99793.30;;;23.76;52.16
34893;BME280;21106;52.240;20.902;2023-07-16T02:32:20;99788.19;;;23.72;52.45
34893;BME280;21106;52.240;20.902;2023-07-16T02:37:26;99788.02;;;23.70;52.63
34893;BME280;21106;52.240;20.902;2023-07-16T02:42:55;99786.98;;;23.67;52.84
34893;BME280;21106;52.240;20.902;2023-07-16T02:49:45;99780.11;;;23.61;53.48
34893;BME280;21106;52.240;20.902;2023-07-16T02:55:19;99791.30;;;23.60;53.64
34893;BME280;21106;52.240;20.902;2023-07-16T03:02:08;99785.59;;;23.55;53.71
34893;BME280;21106;52.240;20.902;2023-07-16T03:08:36;99773.25;;;23.47;54.14
34893;BME280;21106;52.240;20.902;2023-07-16T03:14:03;99778.78;;;23.43;54.40
34893;BME280;21106;52.240;20.902;2023-07-16T03:21:03;99785.66;;;23.38;54.84
34893;BME280;21106;52.240;20.902;2023-07-16T03:27:54;99793.32;;;23.34;55.24
34893;BME280;21106;52.240;20.902;2023-07-16T03:34:44;99798.02;;;23.33;55.32
34893;BME280;21106;52.240;20.902;2023-07-16T03:41:36;99802.31;;;23.34;55.52
34893;BME280;21106;52.240;20.902;2023-07-16T03:48:36;99810.64;;;23.34;55.77
34893;BME280;21106;52.240;20.902;2023-07-16T03:55:28;99810.36;;;23.34;55.99
34893;BME280;21106;52.240;20.902;2023-07-16T04:02:19;99819.87;;;23.36;56.09
34893;BME280;21106;52.240;20.902;2023-07-16T04:09:07;99807.70;;;23.42;56.08
34893;BME280;21106;52.240;20.902;2023-07-16T04:16:08;99811.89;;;23.77;56.04
34893;BME280;21106;52.240;20.902;2023-07-16T04:23:03;99805.77;;;24.14;55.53
34893;BME280;21106;52.240;20.902;2023-07-16T04:29:55;99803.05;;;24.55;54.54
34893;BME280;21106;52.240;20.902;2023-07-16T04:35:33;99808.80;;;24.89;53.89
34893;BME280;21106;52.240;20.902;2023-07-16T04:40:39;99811.08;;;25.18;53.23
34893;BME280;21106;52.240;20.902;2023-07-16T04:45:46;99810.83;;;25.46;52.65
34893;BME280;21106;52.240;20.902;2023-07-16T04:50:53;99814.99;;;25.70;52.18
34893;BME280;21106;52.240;20.902;2023-07-16T04:55:59;99812.49;;;25.92;51.56
34893;BME280;21106;52.240;20.902;2023-07-16T05:01:05;99815.05;;;26.10;51.22
34893;BME280;21106;52.240;20.902;2023-07-16T05:06:34;99820.83;;;26.33;50.75
34893;BME280;21106;52.240;20.902;2023-07-16T05:12:31;99821.63;;;26.55;50.25
34893;BME280;21106;52.240;20.902;2023-07-16T05:19:40;99815.58;;;26.75;49.90
34893;BME280;21106;52.240;20.902;2023-07-16T05:26:41;99816.61;;;27.02;49.31
34893;BME280;21106;52.240;20.902;2023-07-16T05:33:29;99810.27;;;27.25;48.83
34893;BME280;21106;52.240;20.902;2023-07-16T05:39:41;99807.30;;;27.55;48.23
34893;BME280;21106;52.240;20.902;2023-07-16T05:44:48;99805.27;;;27.86;47.93
34893;BME280;21106;52.240;20.902;2023-07-16T05:50:34;99800.73;;;28.12;47.20
34893;BME280;21106;52.240;20.902;2023-07-16T05:57:41;99803.30;;;28.32;46.58
34893;BME280;21106;52.240;20.902;2023-07-16T06:04:37;99819.85;;;28.55;46.30
34893;BME280;21106;52.240;20.902;2023-07-16T06:10:26;99824.60;;;28.86;45.72
34893;BME280;21106;52.240;20.902;2023-07-16T06:15:32;99829.30;;;29.14;45.39
34893;BME280;21106;52.240;20.902;2023-07-16T06:20:58;99827.60;;;29.39;44.75
34893;BME280;21106;52.240;20.902;2023-07-16T06:27:59;99822.73;;;29.51;43.91
34893;BME280;21106;52.240;20.902;2023-07-16T06:35:14;99829.19;;;29.72;44.02
34893;BME280;21106;52.240;20.902;2023-07-16T06:47:00;99845.69;;;30.06;43.34
34893;BME280;21106;52.240;20.902;2023-07-16T06:53:51;99860.11;;;30.23;42.87
34893;BME280;21106;52.240;20.902;2023-07-16T07:06:03;99863.33;;;30.56;43.14
34893;BME280;21106;52.240;20.902;2023-07-16T07:11:11;99859.52;;;30.77;42.41
34893;BME280;21106;52.240;20.902;2023-07-16T07:16:17;99866.38;;;30.91;41.90
34893;BME280;21106;52.240;20.902;2023-07-16T07:26:58;99869.00;;;31.29;41.64
34893;BME280;21106;52.240;20.902;2023-07-16T07:37:23;99867.73;;;31.95;40.09
34893;BME280;21106;52.240;20.902;2023-07-16T07:42:29;99847.63;;;32.08;39.60
34893;BME280;21106;52.240;20.902;2023-07-16T07:58:58;99836.96;;;32.31;38.08
34893;BME280;21106;52.240;20.902;2023-07-16T08:04:04;99831.86;;;32.39;38.30
34893;BME280;21106;52.240;20.902;2023-07-16T08:14:38;99818.77;;;32.68;38.50
34893;BME280;21106;52.240;20.902;2023-07-16T08:19:44;99809.86;;;32.98;37.68
34893;BME280;21106;52.240;20.902;2023-07-16T08:30:19;99804.23;;;33.16;36.44
34893;BME280;21106;52.240;20.902;2023-07-16T08:35:25;99803.39;;;33.33;36.50
34893;BME280;21106;52.240;20.902;2023-07-16T08:57:14;99807.80;;;34.21;34.11
34893;BME280;21106;52.240;20.902;2023-07-16T09:02:21;99800.84;;;34.33;33.55
34893;BME280;21106;52.240;20.902;2023-07-16T09:07:27;99798.64;;;34.42;33.66
34893;BME280;21106;52.240;20.902;2023-07-16T09:56:56;99779.95;;;34.41;32.55
34893;BME280;21106;52.240;20.902;2023-07-16T10:07:33;99768.46;;;34.47;32.00
34893;BME280;21106;52.240;20.902;2023-07-16T10:40:22;99771.64;;;33.90;33.92
34893;BME280;21106;52.240;20.902;2023-07-16T10:45:29;99772.50;;;33.81;34.58
34893;BME280;21106;52.240;20.902;2023-07-16T10:50:35;99782.52;;;33.75;35.02
34893;BME280;21106;52.240;20.902;2023-07-16T11:29:17;99780.31;;;33.99;35.37
34893;BME280;21106;52.240;20.902;2023-07-16T15:43:15;99863.19;;;31.80;34.95
34893;BME280;21106;52.240;20.902;2023-07-16T15:48:22;99865.65;;;31.68;35.23
34893;BME280;21106;52.240;20.902;2023-07-16T15:59:00;99868.34;;;31.41;35.58
34893;BME280;21106;52.240;20.902;2023-07-16T16:16:12;99878.51;;;31.27;36.13
34893;BME280;21106;52.240;20.902;2023-07-16T16:28:54;99884.48;;;31.27;36.22
34893;BME280;21106;52.240;20.902;2023-07-16T16:35:25;99887.27;;;31.26;36.48
34893;BME280;21106;52.240;20.902;2023-07-16T17:13:54;99896.71;;;31.18;36.89
34893;BME280;21106;52.240;20.902;2023-07-16T17:25:25;99904.32;;;31.08;37.10
34893;BME280;21106;52.240;20.902;2023-07-16T17:30:31;99905.09;;;31.04;37.27
34893;BME280;21106;52.240;20.902;2023-07-16T17:41:28;99911.09;;;30.92;37.71
34893;BME280;21106;52.240;20.902;2023-07-16T17:47:06;99917.91;;;30.85;37.89
34893;BME280;21106;52.240;20.902;2023-07-16T17:52:38;99913.71;;;30.80;37.95
34893;BME280;21106;52.240;20.902;2023-07-16T18:04:29;99920.68;;;30.70;38.51
34893;BME280;21106;52.240;20.902;2023-07-16T18:09:36;99928.87;;;30.66;38.67
34893;BME280;21106;52.240;20.902;2023-07-16T18:20:11;99931.62;;;30.52;39.09
34893;BME280;21106;52.240;20.902;2023-07-16T18:25:17;99926.77;;;30.45;39.01
34893;BME280;21106;52.240;20.902;2023-07-16T18:30:23;99928.27;;;30.39;39.56
34893;BME280;21106;52.240;20.902;2023-07-16T18:35:30;99939.77;;;30.34;39.66
34893;BME280;21106;52.240;20.902;2023-07-16T18:40:38;99947.83;;;30.29;39.68
34893;BME280;21106;52.240;20.902;2023-07-16T18:45:44;99943.80;;;30.24;39.78
34893;BME280;21106;52.240;20.902;2023-07-16T19:18:39;99983.40;;;29.49;41.28
34893;BME280;21106;52.240;20.902;2023-07-16T19:23:46;99982.42;;;29.39;41.88
34893;BME280;21106;52.240;20.902;2023-07-16T19:28:52;99984.61;;;29.27;42.00
34893;BME280;21106;52.240;20.902;2023-07-16T19:34:00;99995.73;;;29.19;42.55
34893;BME280;21106;52.240;20.902;2023-07-16T19:39:07;100003.77;;;29.07;42.76
34893;BME280;21106;52.240;20.902;2023-07-16T19:44:38;99996.64;;;28.96;42.88
34893;BME280;21106;52.240;20.902;2023-07-16T19:51:20;100001.04;;;28.82;43.29
34893;BME280;21106;52.240;20.902;2023-07-16T19:56:58;100001.40;;;28.72;43.39
34893;BME280;21106;52.240;20.902;2023-07-16T20:09:57;99997.91;;;28.51;43.88
34893;BME280;21106;52.240;20.902;2023-07-16T20:15:05;100001.77;;;28.44;44.13
34893;BME280;21106;52.240;20.902;2023-07-16T20:20:40;100001.05;;;28.36;44.15
34893;BME280;21106;52.240;20.902;2023-07-16T20:26:26;100007.78;;;28.29;44.39
34893;BME280;21106;52.240;20.902;2023-07-16T20:31:43;100016.34;;;28.22;44.60
34893;BME280;21106;52.240;20.902;2023-07-16T20:36:49;100017.69;;;28.15;44.62
34893;BME280;21106;52.240;20.902;2023-07-16T20:41:56;100013.73;;;28.07;44.72
34893;BME280;21106;52.240;20.902;2023-07-16T20:47:02;100015.15;;;28.02;44.71
34893;BME280;21106;52.240;20.902;2023-07-16T20:52:08;100017.95;;;27.98;44.93
34893;BME280;21106;52.240;20.902;2023-07-16T20:57:19;100015.63;;;27.91;44.84
34893;BME280;21106;52.240;20.902;2023-07-16T21:02:27;100018.39;;;27.84;44.88
34893;BME280;21106;52.240;20.902;2023-07-16T21:07:35;100018.65;;;27.78;45.03
34893;BME280;21106;52.240;20.902;2023-07-16T21:13:03;100023.91;;;27.71;45.14
34893;BME280;21106;52.240;20.902;2023-07-16T21:24:59;100031.85;;;27.54;45.39
34893;BME280;21106;52.240;20.902;2023-07-16T21:30:51;100034.09;;;27.47;45.57
34893;BME280;21106;52.240;20.902;2023-07-16T21:37:13;100038.59;;;27.37;45.96
34893;BME280;21106;52.240;20.902;2023-07-16T21:42:32;100034.70;;;27.28;46.04
34893;BME280;21106;52.240;20.902;2023-07-16T21:54:02;100038.92;;;27.12;46.50
34893;BME280;21106;52.240;20.902;2023-07-16T21:59:32;100047.06;;;27.05;46.49
34893;BME280;21106;52.240;20.902;2023-07-16T22:04:38;100049.30;;;26.97;46.83
34893;BME280;21106;52.240;20.902;2023-07-16T22:09:44;100055.09;;;26.90;46.90
34893;BME280;21106;52.240;20.902;2023-07-16T22:15:14;100052.38;;;26.83;47.05
34893;BME280;21106;52.240;20.902;2023-07-16T22:21:00;100057.81;;;26.75;47.08
34893;BME280;21106;52.240;20.902;2023-07-16T22:26:32;100053.44;;;26.67;47.24
34893;BME280;21106;52.240;20.902;2023-07-16T22:32:01;100061.96;;;26.62;47.42
34893;BME280;21106;52.240;20.902;2023-07-16T22:38:52;100057.34;;;26.53;47.49
34893;BME280;21106;52.240;20.902;2023-07-16T22:45:38;100059.09;;;26.43;47.72
34893;BME280;21106;52.240;20.902;2023-07-16T22:51:45;100064.34;;;26.36;47.89
34893;BME280;21106;52.240;20.902;2023-07-16T22:56:52;100064.83;;;26.31;48.08
34893;BME280;21106;52.240;20.902;2023-07-16T23:01:58;100064.64;;;26.26;48.34
34893;BME280;21106;52.240;20.902;2023-07-16T23:07:04;100063.13;;;26.20;48.33
34893;BME280;21106;52.240;20.902;2023-07-16T23:12:11;100070.92;;;26.14;48.51
34893;BME280;21106;52.240;20.902;2023-07-16T23:17:17;100069.04;;;26.08;48.66
34893;BME280;21106;52.240;20.902;2023-07-16T23:22:26;100081.48;;;26.05;48.90
34893;BME280;21106;52.240;20.902;2023-07-16T23:28:04;100079.38;;;25.98;48.96
34893;BME280;21106;52.240;20.902;2023-07-16T23:34:30;100076.31;;;25.90;49.15
34893;BME280;21106;52.240;20.902;2023-07-16T23:39:39;100081.05;;;25.83;49.36
34893;BME280;21106;52.240;20.902;2023-07-16T23:44:47;100075.20;;;25.77;49.60
34893;BME280;21106;52.240;20.902;2023-07-16T23:49:55;100082.45;;;25.72;49.72
34893;BME280;21106;52.240;20.902;2023-07-16T23:55:02;100076.98;;;25.66;49.87
